createdAt,value
2022-07-29T00:04:05.863Z,66.2
2022-07-29T00:09:58.140Z,66.8
2022-07-29T00:15:49.107Z,65.6
2022-07-29T00:21:40.799Z,64.8
2022-07-29T00:27:30.162Z,65.1
2022-07-29T00:33:20.133Z,64.6
2022-07-29T00:39:12.850Z,63.8
2022-07-29T00:45:05.013Z,64.7
2022-07-29T00:50:56.450Z,66
2022-07-29T00:56:48.408Z,67.3
2022-07-29T01:02:39.449Z,67.8
2022-07-29T01:08:32.654Z,68.3
2022-07-29T01:14:23.096Z,68.3
2022-07-29T01:20:17.106Z,68.2
2022-07-29T01:26:10.263Z,68.1
2022-07-29T01:32:09.340Z,68.7
2022-07-29T01:38:18.553Z,69
2022-07-29T01:44:12.872Z,68.4
2022-07-29T01:50:07.875Z,68.1
2022-07-29T01:56:01.374Z,69.9
2022-07-29T02:01:56.290Z,69.5
2022-07-29T02:07:46.021Z,69.6
2022-07-29T02:13:37.747Z,70
2022-07-29T02:19:30.957Z,70.3
2022-07-29T02:25:23.068Z,70.6
2022-07-29T02:31:28.905Z,71.2
2022-07-29T02:37:20.518Z,69.5
2022-07-29T02:43:11.318Z,71
2022-07-29T02:49:03.694Z,71.6
2022-07-29T02:54:55.738Z,70.2
2022-07-29T03:00:49.779Z,71.2
2022-07-29T03:06:41.331Z,70.8
2022-07-29T03:12:33.681Z,72.7
2022-07-29T03:18:26.030Z,73.4
2022-07-29T03:24:16.831Z,73.2
2022-07-29T03:30:10.539Z,73.9
2022-07-29T03:36:09.535Z,73.1
2022-07-29T03:42:00.136Z,72.9
2022-07-29T03:48:00.833Z,73.5
2022-07-29T03:53:58.109Z,73
2022-07-29T03:59:55.134Z,76.5
2022-07-29T04:05:52.474Z,75.2
2022-07-29T04:12:04.380Z,74.4
2022-07-29T04:17:55.880Z,76
2022-07-29T04:23:54.812Z,74.7
2022-07-29T04:29:59.222Z,74.5
2022-07-29T04:35:54.986Z,73.5
2022-07-29T04:41:48.642Z,72.8
2022-07-29T04:47:43.917Z,74.1
2022-07-29T04:53:39.649Z,73.1
2022-07-29T04:59:33.308Z,70.8
2022-07-29T05:05:29.344Z,67.6
2022-07-29T05:11:30.029Z,64.7
2022-07-29T05:17:19.639Z,63.9
2022-07-29T05:23:11.438Z,65.9
2022-07-29T05:29:04.390Z,65.7
2022-07-29T05:35:29.506Z,64.5
2022-07-29T05:41:18.440Z,65
2022-07-29T05:47:07.975Z,64.7
2022-07-29T05:52:58.165Z,52.2
2022-07-29T05:59:19.752Z,57.5
2022-07-29T06:05:19.047Z,45.2
2022-07-29T06:11:10.457Z,45.5
2022-07-29T06:17:03.458Z,47
2022-07-29T06:24:04.099Z,49.3
2022-07-29T06:29:50.586Z,55.5
2022-07-29T06:35:55.292Z,55.7
2022-07-29T06:41:47.342Z,56.6
2022-07-29T06:47:38.363Z,57.1
2022-07-29T06:53:32.025Z,57.1
2022-07-29T06:59:35.700Z,58.3
2022-07-29T07:05:27.450Z,58.6
2022-07-29T07:11:19.865Z,58.1
2022-07-29T07:17:11.081Z,58.2
2022-07-29T07:23:02.301Z,57.9
2022-07-29T07:28:51.388Z,57.6
2022-07-29T07:34:41.883Z,57.9
2022-07-29T07:40:32.038Z,57.1
2022-07-29T07:46:23.753Z,56.3
2022-07-29T07:52:16.102Z,56.1
2022-07-29T07:58:07.603Z,55.9
2022-07-29T08:04:01.911Z,54.2
2022-07-29T08:10:04.062Z,54
2022-07-29T08:15:58.701Z,54.4
2022-07-29T08:21:50.707Z,53.4
2022-07-29T08:27:46.299Z,52.2
2022-07-29T08:33:37.981Z,53.6
2022-07-29T08:39:31.695Z,51.7
2022-07-29T08:45:23.450Z,52
2022-07-29T08:51:16.136Z,49.9
2022-07-29T08:57:07.052Z,49.7
2022-07-29T09:03:08.306Z,48.3
2022-07-29T09:08:59.561Z,47.8
2022-07-29T09:14:52.219Z,47.4
2022-07-29T09:20:45.967Z,47.2
2022-07-29T09:26:39.282Z,46.7
2022-07-29T09:32:30.499Z,46.7
2022-07-29T09:38:22.781Z,47.4
2022-07-29T09:44:14.930Z,46.7
2022-07-29T09:50:07.237Z,46.7
2022-07-29T09:56:02.451Z,45.7
2022-07-29T10:01:53.897Z,45
2022-07-29T10:07:59.779Z,45.2
2022-07-29T10:13:54.094Z,45.1
2022-07-29T10:19:46.726Z,44.2
2022-07-29T10:25:45.866Z,43.5
2022-07-29T10:31:44.082Z,43.2
2022-07-29T10:37:38.195Z,44.7
2022-07-29T10:43:42.293Z,44.3
2022-07-29T10:49:37.533Z,42.6
2022-07-29T10:55:37.934Z,43.9
2022-07-29T11:01:39.559Z,44.2
2022-07-29T11:08:28.319Z,43.8
2022-07-29T12:12:56.795Z,46
2022-07-29T12:18:46.482Z,45.1
2022-07-29T12:24:39.810Z,44.9
2022-07-29T12:30:35.294Z,44.7
2022-07-29T12:36:30.978Z,45
2022-07-29T12:42:25.116Z,44.4
2022-07-29T12:48:19.015Z,43.7
2022-07-29T12:54:10.149Z,43.5
2022-07-29T13:00:01.528Z,44.3
2022-07-29T13:05:52.452Z,42.6
2022-07-29T13:11:49.722Z,43.1
2022-07-29T13:17:43.932Z,42.2
2022-07-29T13:23:40.056Z,43.1
2022-07-29T13:29:33.568Z,42.4
2022-07-29T13:35:28.339Z,42.8
2022-07-29T13:41:27.739Z,42.5
2022-07-29T13:47:18.835Z,42.4
2022-07-29T13:53:19.792Z,42.8
2022-07-29T13:59:17.131Z,42.5
2022-07-29T14:05:11.009Z,42
2022-07-29T14:11:01.948Z,42
2022-07-29T14:16:54.358Z,42.2
2022-07-29T14:22:46.885Z,42.5
2022-07-29T14:28:43.393Z,43
2022-07-29T14:34:33.654Z,42.6
2022-07-29T14:40:24.159Z,41.9
2022-07-29T14:46:15.034Z,41.8
2022-07-29T14:52:06.991Z,41.9
2022-07-29T14:58:13.302Z,41.3
2022-07-29T15:04:04.250Z,41.8
2022-07-29T15:10:01.042Z,42
2022-07-29T15:16:01.597Z,40.9
2022-07-29T15:21:50.825Z,42
2022-07-29T15:27:59.180Z,41.9
2022-07-29T15:33:49.465Z,42.8
2022-07-29T15:39:52.027Z,43
2022-07-29T15:45:49.447Z,44.1
2022-07-29T15:51:41.810Z,44.1
2022-07-29T15:57:32.640Z,44.2
2022-07-29T16:03:24.817Z,44
2022-07-29T16:09:15.566Z,44.7
2022-07-29T16:15:11.447Z,44.3
2022-07-29T16:21:01.666Z,44.3
2022-07-29T16:26:53.861Z,44.8
2022-07-29T16:32:46.186Z,44.9
2022-07-29T17:06:12.361Z,45.8
2022-07-29T17:59:52.338Z,44.1
2022-07-29T20:20:18.724Z,53
2022-07-29T20:26:13.759Z,53
2022-07-29T20:32:05.314Z,54.8
2022-07-29T20:38:13.914Z,55.3
2022-07-29T20:50:55.129Z,56.4
2022-07-29T20:56:58.782Z,56.3
2022-07-29T21:09:18.914Z,57.5
2022-07-29T21:15:09.651Z,58.2
2022-07-29T21:20:59.961Z,58
2022-07-29T21:27:23.761Z,58.7
2022-07-29T21:33:17.017Z,58.9
2022-07-29T21:39:09.171Z,59.5
2022-07-29T21:45:05.499Z,59.4
2022-07-29T21:51:04.273Z,59.5
2022-07-29T21:57:00.767Z,59.8
2022-07-29T22:02:58.413Z,60.7
2022-07-29T22:08:52.055Z,61.6
2022-07-29T22:14:44.353Z,61.6
2022-07-29T22:20:38.254Z,61.2
2022-07-29T22:26:32.735Z,61.5
2022-07-29T22:32:24.411Z,62
2022-07-29T22:38:15.746Z,62.6
2022-07-29T22:44:08.058Z,62.1
2022-07-29T22:49:58.158Z,62.9
2022-07-29T22:55:51.112Z,62.7
2022-07-29T23:01:47.181Z,64.6
2022-07-29T23:07:52.709Z,66.3
2022-07-29T23:13:44.767Z,65.8
2022-07-29T23:19:35.656Z,65.8
2022-07-29T23:25:31.358Z,65.7
2022-07-29T23:31:21.542Z,66.7
2022-07-29T23:37:15.768Z,65.9
2022-07-29T23:43:10.609Z,67.5
2022-07-29T23:49:00.105Z,67.4
2022-07-29T23:54:54.947Z,68.1
